Chicago, Illinois
Traffic Map
Current Weather Conditions
Chicago, Illinois
Overcast
Overcast
38°
Feels Like: 31°
Wind Chill: 31° Ceiling: 1300
Heat Index: 38° Visibility: 10mi
Dew Point: 32° Wind: 10mph
Humidity: 79% Direction: 320° (NW)
Pressure: 29.83in Gusts: 0mph
Raw Report DataKMDW 240953Z 32009KT 10SM OVC013 03/00 A2983 RMK AO2 SLP109 T00330000
Traffic Incident Summary
Active as of:
Severity:
Category:
InformationThere was an issue retrieving the traffic information for this location. Please try a different location or try again shortly.
Advertisements
Track Severe Weather on mobile